sensor_id;sensor_type;location;lat;lon;timestamp;P1;durP1;ratioP1;P2;durP2;ratioP2
8887;SDS011;4480;52.370;9.748;2022-10-31T00:01:22;10.97;;;6.33;;
8887;SDS011;4480;52.370;9.748;2022-10-31T00:03:49;11.00;;;6.90;;
8887;SDS011;4480;52.370;9.748;2022-10-31T00:06:16;10.80;;;5.73;;
8887;SDS011;4480;52.370;9.748;2022-10-31T00:08:45;14.37;;;7.13;;
8887;SDS011;4480;52.370;9.748;2022-10-31T00:11:12;12.37;;;6.80;;
8887;SDS011;4480;52.370;9.748;2022-10-31T00:13:39;8.77;;;6.40;;
8887;SDS011;4480;52.370;9.748;2022-10-31T00:16:12;11.87;;;7.50;;
8887;SDS011;4480;52.370;9.748;2022-10-31T00:18:39;12.03;;;7.10;;
8887;SDS011;4480;52.370;9.748;2022-10-31T00:21:06;10.90;;;7.00;;
8887;SDS011;4480;52.370;9.748;2022-10-31T00:23:33;10.90;;;7.93;;
8887;SDS011;4480;52.370;9.748;2022-10-31T00:26:02;10.10;;;7.40;;
8887;SDS011;4480;52.370;9.748;2022-10-31T00:28:30;8.90;;;7.50;;
8887;SDS011;4480;52.370;9.748;2022-10-31T00:30:58;17.47;;;9.07;;
8887;SDS011;4480;52.370;9.748;2022-10-31T00:33:25;12.80;;;7.50;;
8887;SDS011;4480;52.370;9.748;2022-10-31T00:35:52;12.40;;;8.10;;
8887;SDS011;4480;52.370;9.748;2022-10-31T00:38:20;13.73;;;9.10;;
8887;SDS011;4480;52.370;9.748;2022-10-31T00:40:47;17.43;;;9.70;;
8887;SDS011;4480;52.370;9.748;2022-10-31T00:43:15;16.50;;;9.63;;
8887;SDS011;4480;52.370;9.748;2022-10-31T00:45:42;15.23;;;9.10;;
8887;SDS011;4480;52.370;9.748;2022-10-31T00:48:09;14.93;;;8.97;;
8887;SDS011;4480;52.370;9.748;2022-10-31T00:50:37;10.63;;;8.40;;
8887;SDS011;4480;52.370;9.748;2022-10-31T00:53:04;23.77;;;10.17;;
8887;SDS011;4480;52.370;9.748;2022-10-31T00:55:31;20.13;;;10.40;;
8887;SDS011;4480;52.370;9.748;2022-10-31T00:57:58;17.53;;;9.97;;
8887;SDS011;4480;52.370;9.748;2022-10-31T01:00:26;19.23;;;11.10;;
8887;SDS011;4480;52.370;9.748;2022-10-31T01:02:53;18.50;;;11.03;;
8887;SDS011;4480;52.370;9.748;2022-10-31T01:05:21;19.20;;;12.10;;
8887;SDS011;4480;52.370;9.748;2022-10-31T01:07:48;17.30;;;11.50;;
8887;SDS011;4480;52.370;9.748;2022-10-31T01:10:15;19.10;;;12.40;;
8887;SDS011;4480;52.370;9.748;2022-10-31T01:12:44;22.13;;;14.00;;
8887;SDS011;4480;52.370;9.748;2022-10-31T01:15:12;24.03;;;14.30;;
8887;SDS011;4480;52.370;9.748;2022-10-31T01:17:40;19.70;;;13.80;;
8887;SDS011;4480;52.370;9.748;2022-10-31T01:20:08;20.37;;;14.40;;
8887;SDS011;4480;52.370;9.748;2022-10-31T01:22:35;23.23;;;16.23;;
8887;SDS011;4480;52.370;9.748;2022-10-31T01:25:02;24.80;;;15.23;;
8887;SDS011;4480;52.370;9.748;2022-10-31T01:27:30;27.73;;;17.27;;
8887;SDS011;4480;52.370;9.748;2022-10-31T01:29:57;26.03;;;16.77;;
8887;SDS011;4480;52.370;9.748;2022-10-31T01:32:24;24.00;;;17.70;;
8887;SDS011;4480;52.370;9.748;2022-10-31T01:34:55;31.40;;;18.30;;
8887;SDS011;4480;52.370;9.748;2022-10-31T01:37:22;30.67;;;20.23;;
8887;SDS011;4480;52.370;9.748;2022-10-31T01:39:49;28.17;;;18.27;;
8887;SDS011;4480;52.370;9.748;2022-10-31T01:42:17;29.27;;;20.93;;
8887;SDS011;4480;52.370;9.748;2022-10-31T01:44:50;33.50;;;20.70;;
8887;SDS011;4480;52.370;9.748;2022-10-31T01:47:19;29.13;;;20.10;;
8887;SDS011;4480;52.370;9.748;2022-10-31T01:49:47;28.67;;;20.63;;
8887;SDS011;4480;52.370;9.748;2022-10-31T01:52:18;36.33;;;22.63;;
8887;SDS011;4480;52.370;9.748;2022-10-31T01:54:47;26.73;;;22.20;;
8887;SDS011;4480;52.370;9.748;2022-10-31T01:57:16;35.10;;;21.27;;
8887;SDS011;4480;52.370;9.748;2022-10-31T01:59:47;34.60;;;20.97;;
8887;SDS011;4480;52.370;9.748;2022-10-31T02:02:15;30.33;;;21.70;;
8887;SDS011;4480;52.370;9.748;2022-10-31T02:04:43;33.77;;;21.37;;
8887;SDS011;4480;52.370;9.748;2022-10-31T02:07:10;36.97;;;22.87;;
8887;SDS011;4480;52.370;9.748;2022-10-31T02:09:40;26.17;;;21.00;;
8887;SDS011;4480;52.370;9.748;2022-10-31T02:12:08;34.80;;;21.47;;
8887;SDS011;4480;52.370;9.748;2022-10-31T02:14:36;33.20;;;21.67;;
8887;SDS011;4480;52.370;9.748;2022-10-31T02:17:04;30.80;;;21.67;;
8887;SDS011;4480;52.370;9.748;2022-10-31T02:19:33;35.83;;;21.30;;
8887;SDS011;4480;52.370;9.748;2022-10-31T02:22:02;31.70;;;22.40;;
8887;SDS011;4480;52.370;9.748;2022-10-31T02:24:36;32.73;;;21.53;;
8887;SDS011;4480;52.370;9.748;2022-10-31T02:27:18;34.57;;;22.50;;
8887;SDS011;4480;52.370;9.748;2022-10-31T02:29:52;34.40;;;21.53;;
8887;SDS011;4480;52.370;9.748;2022-10-31T02:32:24;33.63;;;22.70;;
8887;SDS011;4480;52.370;9.748;2022-10-31T02:34:52;35.20;;;22.70;;
8887;SDS011;4480;52.370;9.748;2022-10-31T02:37:22;40.37;;;23.60;;
8887;SDS011;4480;52.370;9.748;2022-10-31T02:39:53;38.53;;;23.70;;
8887;SDS011;4480;52.370;9.748;2022-10-31T02:42:23;29.70;;;20.17;;
8887;SDS011;4480;52.370;9.748;2022-10-31T02:44:58;34.93;;;22.83;;
8887;SDS011;4480;52.370;9.748;2022-10-31T02:47:28;36.37;;;21.90;;
8887;SDS011;4480;52.370;9.748;2022-10-31T02:49:59;35.03;;;22.67;;
8887;SDS011;4480;52.370;9.748;2022-10-31T02:52:27;34.27;;;22.13;;
8887;SDS011;4480;52.370;9.748;2022-10-31T02:54:55;44.40;;;22.50;;
8887;SDS011;4480;52.370;9.748;2022-10-31T02:57:23;33.77;;;23.37;;
8887;SDS011;4480;52.370;9.748;2022-10-31T02:59:52;35.17;;;23.50;;
8887;SDS011;4480;52.370;9.748;2022-10-31T03:02:25;41.27;;;23.87;;
8887;SDS011;4480;52.370;9.748;2022-10-31T03:05:03;36.10;;;23.10;;
8887;SDS011;4480;52.370;9.748;2022-10-31T03:07:35;36.83;;;23.43;;
8887;SDS011;4480;52.370;9.748;2022-10-31T03:10:10;36.13;;;24.17;;
8887;SDS011;4480;52.370;9.748;2022-10-31T03:12:40;37.17;;;24.03;;
8887;SDS011;4480;52.370;9.748;2022-10-31T03:15:12;35.60;;;22.47;;
8887;SDS011;4480;52.370;9.748;2022-10-31T03:17:42;34.73;;;22.67;;
8887;SDS011;4480;52.370;9.748;2022-10-31T03:20:14;30.30;;;22.33;;
8887;SDS011;4480;52.370;9.748;2022-10-31T03:22:42;30.70;;;23.00;;
8887;SDS011;4480;52.370;9.748;2022-10-31T03:25:10;35.70;;;23.33;;
8887;SDS011;4480;52.370;9.748;2022-10-31T03:27:38;34.90;;;22.73;;
8887;SDS011;4480;52.370;9.748;2022-10-31T03:30:08;34.77;;;21.97;;
8887;SDS011;4480;52.370;9.748;2022-10-31T03:32:36;39.87;;;23.73;;
8887;SDS011;4480;52.370;9.748;2022-10-31T03:35:05;37.47;;;23.13;;
8887;SDS011;4480;52.370;9.748;2022-10-31T03:37:35;39.60;;;24.10;;
8887;SDS011;4480;52.370;9.748;2022-10-31T03:40:03;34.10;;;22.90;;
8887;SDS011;4480;52.370;9.748;2022-10-31T03:42:31;31.20;;;21.47;;
8887;SDS011;4480;52.370;9.748;2022-10-31T03:45:00;39.67;;;23.10;;
8887;SDS011;4480;52.370;9.748;2022-10-31T03:47:28;40.07;;;24.70;;
8887;SDS011;4480;52.370;9.748;2022-10-31T03:49:55;42.63;;;24.47;;
8887;SDS011;4480;52.370;9.748;2022-10-31T03:52:24;42.37;;;24.40;;
8887;SDS011;4480;52.370;9.748;2022-10-31T03:54:54;38.73;;;24.40;;
8887;SDS011;4480;52.370;9.748;2022-10-31T03:57:24;35.90;;;24.70;;
8887;SDS011;4480;52.370;9.748;2022-10-31T03:59:53;36.83;;;24.50;;
8887;SDS011;4480;52.370;9.748;2022-10-31T04:02:23;41.20;;;23.27;;
8887;SDS011;4480;52.370;9.748;2022-10-31T04:04:52;39.40;;;22.97;;
8887;SDS011;4480;52.370;9.748;2022-10-31T04:10:28;43.83;;;23.97;;
8887;SDS011;4480;52.370;9.748;2022-10-31T04:12:56;36.47;;;23.13;;
8887;SDS011;4480;52.370;9.748;2022-10-31T04:15:24;38.37;;;24.47;;
8887;SDS011;4480;52.370;9.748;2022-10-31T04:17:53;39.30;;;23.77;;
8887;SDS011;4480;52.370;9.748;2022-10-31T04:20:28;33.80;;;23.30;;
8887;SDS011;4480;52.370;9.748;2022-10-31T04:25:36;38.77;;;24.13;;
8887;SDS011;4480;52.370;9.748;2022-10-31T04:28:03;37.70;;;22.83;;
8887;SDS011;4480;52.370;9.748;2022-10-31T04:30:30;40.83;;;25.70;;
8887;SDS011;4480;52.370;9.748;2022-10-31T04:32:57;40.13;;;25.73;;
8887;SDS011;4480;52.370;9.748;2022-10-31T04:35:24;43.23;;;26.60;;
8887;SDS011;4480;52.370;9.748;2022-10-31T04:37:51;38.93;;;24.40;;
8887;SDS011;4480;52.370;9.748;2022-10-31T04:40:18;36.70;;;24.93;;
8887;SDS011;4480;52.370;9.748;2022-10-31T04:42:47;40.60;;;24.20;;
8887;SDS011;4480;52.370;9.748;2022-10-31T04:45:14;39.10;;;23.20;;
8887;SDS011;4480;52.370;9.748;2022-10-31T04:47:41;48.37;;;22.23;;
8887;SDS011;4480;52.370;9.748;2022-10-31T04:50:08;47.03;;;23.97;;
8887;SDS011;4480;52.370;9.748;2022-10-31T04:52:38;40.37;;;23.00;;
8887;SDS011;4480;52.370;9.748;2022-10-31T04:55:05;36.27;;;24.20;;
8887;SDS011;4480;52.370;9.748;2022-10-31T04:57:39;42.47;;;24.03;;
8887;SDS011;4480;52.370;9.748;2022-10-31T05:00:08;41.03;;;23.97;;
8887;SDS011;4480;52.370;9.748;2022-10-31T05:02:42;38.00;;;23.40;;
8887;SDS011;4480;52.370;9.748;2022-10-31T05:05:09;40.80;;;23.40;;
8887;SDS011;4480;52.370;9.748;2022-10-31T05:07:37;37.83;;;23.33;;
8887;SDS011;4480;52.370;9.748;2022-10-31T05:10:05;38.40;;;21.37;;
8887;SDS011;4480;52.370;9.748;2022-10-31T05:12:32;40.07;;;23.87;;
8887;SDS011;4480;52.370;9.748;2022-10-31T05:14:59;45.93;;;24.10;;
8887;SDS011;4480;52.370;9.748;2022-10-31T05:17:27;42.50;;;25.27;;
8887;SDS011;4480;52.370;9.748;2022-10-31T05:19:54;40.73;;;24.67;;
8887;SDS011;4480;52.370;9.748;2022-10-31T05:22:21;36.30;;;25.30;;
8887;SDS011;4480;52.370;9.748;2022-10-31T05:24:48;40.93;;;26.20;;
8887;SDS011;4480;52.370;9.748;2022-10-31T05:27:15;46.27;;;24.30;;
8887;SDS011;4480;52.370;9.748;2022-10-31T05:29:42;39.80;;;24.47;;
8887;SDS011;4480;52.370;9.748;2022-10-31T05:32:09;49.30;;;24.20;;
8887;SDS011;4480;52.370;9.748;2022-10-31T05:34:38;41.50;;;23.27;;
8887;SDS011;4480;52.370;9.748;2022-10-31T05:37:05;40.97;;;23.47;;
8887;SDS011;4480;52.370;9.748;2022-10-31T05:39:32;36.47;;;22.87;;
8887;SDS011;4480;52.370;9.748;2022-10-31T05:41:59;45.87;;;24.60;;
8887;SDS011;4480;52.370;9.748;2022-10-31T05:44:26;43.47;;;24.33;;
8887;SDS011;4480;52.370;9.748;2022-10-31T05:46:53;44.70;;;23.97;;
8887;SDS011;4480;52.370;9.748;2022-10-31T05:49:20;41.67;;;25.27;;
8887;SDS011;4480;52.370;9.748;2022-10-31T05:51:49;47.47;;;25.67;;
8887;SDS011;4480;52.370;9.748;2022-10-31T05:54:16;42.30;;;23.57;;
8887;SDS011;4480;52.370;9.748;2022-10-31T05:56:43;46.63;;;23.43;;
8887;SDS011;4480;52.370;9.748;2022-10-31T05:59:10;41.70;;;25.20;;
8887;SDS011;4480;52.370;9.748;2022-10-31T06:01:37;41.70;;;24.93;;
8887;SDS011;4480;52.370;9.748;2022-10-31T06:04:04;47.40;;;24.73;;
8887;SDS011;4480;52.370;9.748;2022-10-31T06:06:31;38.80;;;23.60;;
8887;SDS011;4480;52.370;9.748;2022-10-31T06:08:59;37.20;;;23.57;;
8887;SDS011;4480;52.370;9.748;2022-10-31T06:11:26;40.63;;;22.50;;
8887;SDS011;4480;52.370;9.748;2022-10-31T06:13:53;36.63;;;23.57;;
8887;SDS011;4480;52.370;9.748;2022-10-31T06:16:20;40.73;;;24.40;;
8887;SDS011;4480;52.370;9.748;2022-10-31T06:18:47;44.60;;;24.63;;
8887;SDS011;4480;52.370;9.748;2022-10-31T06:21:14;39.00;;;25.20;;
8887;SDS011;4480;52.370;9.748;2022-10-31T06:23:42;47.13;;;25.63;;
8887;SDS011;4480;52.370;9.748;2022-10-31T06:26:10;41.77;;;23.73;;
8887;SDS011;4480;52.370;9.748;2022-10-31T06:28:37;42.90;;;24.57;;
8887;SDS011;4480;52.370;9.748;2022-10-31T06:31:04;40.10;;;23.40;;
8887;SDS011;4480;52.370;9.748;2022-10-31T06:33:32;39.83;;;22.73;;
8887;SDS011;4480;52.370;9.748;2022-10-31T06:35:59;42.63;;;24.10;;
8887;SDS011;4480;52.370;9.748;2022-10-31T06:38:26;45.50;;;25.30;;
8887;SDS011;4480;52.370;9.748;2022-10-31T06:40:53;43.67;;;22.93;;
8887;SDS011;4480;52.370;9.748;2022-10-31T06:43:21;49.27;;;24.33;;
8887;SDS011;4480;52.370;9.748;2022-10-31T06:45:49;41.77;;;23.10;;
8887;SDS011;4480;52.370;9.748;2022-10-31T06:48:16;37.50;;;22.47;;
8887;SDS011;4480;52.370;9.748;2022-10-31T06:50:43;36.97;;;22.33;;
8887;SDS011;4480;52.370;9.748;2022-10-31T06:53:10;43.43;;;22.17;;
8887;SDS011;4480;52.370;9.748;2022-10-31T06:55:38;45.13;;;22.97;;
8887;SDS011;4480;52.370;9.748;2022-10-31T06:58:05;38.17;;;23.23;;
8887;SDS011;4480;52.370;9.748;2022-10-31T07:00:33;35.87;;;21.43;;
8887;SDS011;4480;52.370;9.748;2022-10-31T07:03:01;32.80;;;21.93;;
8887;SDS011;4480;52.370;9.748;2022-10-31T07:05:29;35.10;;;22.40;;
8887;SDS011;4480;52.370;9.748;2022-10-31T07:07:57;31.57;;;21.23;;
8887;SDS011;4480;52.370;9.748;2022-10-31T07:10:24;31.83;;;21.00;;
8887;SDS011;4480;52.370;9.748;2022-10-31T07:12:53;33.20;;;21.80;;
8887;SDS011;4480;52.370;9.748;2022-10-31T07:15:21;32.90;;;22.27;;
8887;SDS011;4480;52.370;9.748;2022-10-31T07:17:49;40.47;;;21.37;;
8887;SDS011;4480;52.370;9.748;2022-10-31T07:20:16;32.93;;;20.33;;
8887;SDS011;4480;52.370;9.748;2022-10-31T07:22:43;28.87;;;19.37;;
8887;SDS011;4480;52.370;9.748;2022-10-31T07:25:11;31.73;;;20.00;;
8887;SDS011;4480;52.370;9.748;2022-10-31T07:27:38;29.37;;;19.30;;
8887;SDS011;4480;52.370;9.748;2022-10-31T07:30:06;28.37;;;18.30;;
8887;SDS011;4480;52.370;9.748;2022-10-31T07:32:37;29.23;;;19.30;;
8887;SDS011;4480;52.370;9.748;2022-10-31T07:35:06;28.40;;;19.70;;
8887;SDS011;4480;52.370;9.748;2022-10-31T07:37:33;30.73;;;18.73;;
8887;SDS011;4480;52.370;9.748;2022-10-31T07:40:00;30.90;;;17.37;;
8887;SDS011;4480;52.370;9.748;2022-10-31T07:42:27;28.20;;;18.30;;
8887;SDS011;4480;52.370;9.748;2022-10-31T07:44:54;23.77;;;16.80;;
8887;SDS011;4480;52.370;9.748;2022-10-31T07:47:22;26.37;;;18.23;;
8887;SDS011;4480;52.370;9.748;2022-10-31T07:49:49;29.30;;;17.40;;
8887;SDS011;4480;52.370;9.748;2022-10-31T07:52:17;27.77;;;18.13;;
8887;SDS011;4480;52.370;9.748;2022-10-31T07:54:44;27.27;;;17.77;;
8887;SDS011;4480;52.370;9.748;2022-10-31T07:57:11;27.50;;;17.80;;
8887;SDS011;4480;52.370;9.748;2022-10-31T07:59:38;23.10;;;16.50;;
8887;SDS011;4480;52.370;9.748;2022-10-31T08:02:07;26.93;;;16.57;;
8887;SDS011;4480;52.370;9.748;2022-10-31T08:04:34;23.97;;;16.90;;
8887;SDS011;4480;52.370;9.748;2022-10-31T08:07:01;23.60;;;16.30;;
8887;SDS011;4480;52.370;9.748;2022-10-31T08:09:29;29.40;;;16.67;;
8887;SDS011;4480;52.370;9.748;2022-10-31T08:11:56;20.90;;;16.83;;
8887;SDS011;4480;52.370;9.748;2022-10-31T08:14:23;26.23;;;16.17;;
8887;SDS011;4480;52.370;9.748;2022-10-31T08:16:51;21.83;;;15.70;;
8887;SDS011;4480;52.370;9.748;2022-10-31T08:19:18;21.13;;;14.67;;
8887;SDS011;4480;52.370;9.748;2022-10-31T08:21:45;22.90;;;15.47;;
8887;SDS011;4480;52.370;9.748;2022-10-31T08:24:13;22.00;;;15.60;;
8887;SDS011;4480;52.370;9.748;2022-10-31T08:26:41;27.80;;;15.87;;
8887;SDS011;4480;52.370;9.748;2022-10-31T08:29:08;24.00;;;15.93;;
8887;SDS011;4480;52.370;9.748;2022-10-31T08:31:35;26.63;;;15.50;;
8887;SDS011;4480;52.370;9.748;2022-10-31T08:34:02;21.77;;;15.07;;
8887;SDS011;4480;52.370;9.748;2022-10-31T08:36:29;26.10;;;15.40;;
8887;SDS011;4480;52.370;9.748;2022-10-31T08:38:57;21.20;;;16.30;;
8887;SDS011;4480;52.370;9.748;2022-10-31T08:41:24;27.37;;;15.83;;
8887;SDS011;4480;52.370;9.748;2022-10-31T08:43:52;25.33;;;17.03;;
8887;SDS011;4480;52.370;9.748;2022-10-31T08:46:19;22.50;;;16.03;;
8887;SDS011;4480;52.370;9.748;2022-10-31T08:48:47;25.60;;;15.87;;
8887;SDS011;4480;52.370;9.748;2022-10-31T08:51:14;22.60;;;15.67;;
8887;SDS011;4480;52.370;9.748;2022-10-31T08:53:41;22.80;;;17.20;;
8887;SDS011;4480;52.370;9.748;2022-10-31T08:56:08;22.23;;;16.50;;
8887;SDS011;4480;52.370;9.748;2022-10-31T08:58:35;24.50;;;16.77;;
8887;SDS011;4480;52.370;9.748;2022-10-31T09:01:04;23.57;;;16.67;;
8887;SDS011;4480;52.370;9.748;2022-10-31T09:03:31;24.73;;;16.57;;
8887;SDS011;4480;52.370;9.748;2022-10-31T09:05:59;22.47;;;15.17;;
8887;SDS011;4480;52.370;9.748;2022-10-31T09:08:26;20.57;;;15.63;;
8887;SDS011;4480;52.370;9.748;2022-10-31T09:10:55;22.10;;;16.33;;
8887;SDS011;4480;52.370;9.748;2022-10-31T09:13:23;23.10;;;16.23;;
8887;SDS011;4480;52.370;9.748;2022-10-31T09:15:50;23.80;;;15.70;;
8887;SDS011;4480;52.370;9.748;2022-10-31T09:18:19;23.53;;;16.20;;
8887;SDS011;4480;52.370;9.748;2022-10-31T09:20:46;20.13;;;14.50;;
8887;SDS011;4480;52.370;9.748;2022-10-31T09:23:14;19.70;;;15.43;;
8887;SDS011;4480;52.370;9.748;2022-10-31T09:25:41;28.63;;;15.57;;
8887;SDS011;4480;52.370;9.748;2022-10-31T09:28:10;22.77;;;13.50;;
8887;SDS011;4480;52.370;9.748;2022-10-31T09:30:37;23.40;;;14.20;;
8887;SDS011;4480;52.370;9.748;2022-10-31T09:33:05;24.90;;;14.67;;
8887;SDS011;4480;52.370;9.748;2022-10-31T09:35:34;20.60;;;14.70;;
8887;SDS011;4480;52.370;9.748;2022-10-31T09:38:02;25.73;;;14.70;;
8887;SDS011;4480;52.370;9.748;2022-10-31T09:40:30;20.70;;;15.20;;
8887;SDS011;4480;52.370;9.748;2022-10-31T09:42:59;20.50;;;13.03;;
8887;SDS011;4480;52.370;9.748;2022-10-31T09:45:31;19.83;;;13.20;;
8887;SDS011;4480;52.370;9.748;2022-10-31T09:48:03;19.20;;;13.33;;
8887;SDS011;4480;52.370;9.748;2022-10-31T09:50:36;23.90;;;14.37;;
8887;SDS011;4480;52.370;9.748;2022-10-31T09:53:09;27.10;;;14.97;;
8887;SDS011;4480;52.370;9.748;2022-10-31T09:55:38;22.60;;;13.70;;
8887;SDS011;4480;52.370;9.748;2022-10-31T09:58:06;24.57;;;13.40;;
8887;SDS011;4480;52.370;9.748;2022-10-31T10:00:36;19.60;;;12.87;;
8887;SDS011;4480;52.370;9.748;2022-10-31T10:03:06;22.27;;;13.63;;
8887;SDS011;4480;52.370;9.748;2022-10-31T10:05:43;23.43;;;13.37;;
8887;SDS011;4480;52.370;9.748;2022-10-31T10:08:12;21.10;;;13.43;;
8887;SDS011;4480;52.370;9.748;2022-10-31T10:10:45;28.53;;;13.37;;
8887;SDS011;4480;52.370;9.748;2022-10-31T10:13:33;20.63;;;14.33;;
8887;SDS011;4480;52.370;9.748;2022-10-31T10:16:06;18.37;;;12.50;;
8887;SDS011;4480;52.370;9.748;2022-10-31T10:18:38;18.60;;;12.63;;
8887;SDS011;4480;52.370;9.748;2022-10-31T10:21:12;25.57;;;13.73;;
8887;SDS011;4480;52.370;9.748;2022-10-31T10:26:13;19.70;;;13.80;;
8887;SDS011;4480;52.370;9.748;2022-10-31T10:28:43;15.37;;;11.37;;
8887;SDS011;4480;52.370;9.748;2022-10-31T10:31:12;18.00;;;12.03;;
8887;SDS011;4480;52.370;9.748;2022-10-31T10:33:40;16.00;;;10.23;;
8887;SDS011;4480;52.370;9.748;2022-10-31T10:36:12;13.67;;;10.20;;
8887;SDS011;4480;52.370;9.748;2022-10-31T10:38:44;13.63;;;11.17;;
8887;SDS011;4480;52.370;9.748;2022-10-31T10:41:15;16.93;;;10.20;;
8887;SDS011;4480;52.370;9.748;2022-10-31T10:43:43;15.87;;;10.93;;
8887;SDS011;4480;52.370;9.748;2022-10-31T10:46:16;20.30;;;10.50;;
8887;SDS011;4480;52.370;9.748;2022-10-31T10:49:05;17.80;;;10.30;;
8887;SDS011;4480;52.370;9.748;2022-10-31T10:51:37;14.50;;;9.07;;
8887;SDS011;4480;52.370;9.748;2022-10-31T10:56:53;18.90;;;8.90;;
8887;SDS011;4480;52.370;9.748;2022-10-31T10:59:23;14.80;;;8.90;;
8887;SDS011;4480;52.370;9.748;2022-10-31T11:01:50;14.87;;;9.60;;
8887;SDS011;4480;52.370;9.748;2022-10-31T11:04:25;13.67;;;9.50;;
8887;SDS011;4480;52.370;9.748;2022-10-31T11:06:58;18.40;;;9.77;;
8887;SDS011;4480;52.370;9.748;2022-10-31T11:09:25;16.53;;;10.67;;
8887;SDS011;4480;52.370;9.748;2022-10-31T11:11:52;17.30;;;10.50;;
8887;SDS011;4480;52.370;9.748;2022-10-31T11:14:20;14.97;;;10.20;;
8887;SDS011;4480;52.370;9.748;2022-10-31T11:16:48;18.03;;;10.10;;
8887;SDS011;4480;52.370;9.748;2022-10-31T11:19:16;20.77;;;11.00;;
8887;SDS011;4480;52.370;9.748;2022-10-31T11:21:44;18.30;;;11.33;;
8887;SDS011;4480;52.370;9.748;2022-10-31T11:24:16;19.07;;;11.10;;
8887;SDS011;4480;52.370;9.748;2022-10-31T11:26:45;16.40;;;10.07;;
8887;SDS011;4480;52.370;9.748;2022-10-31T11:29:13;13.83;;;8.67;;
8887;SDS011;4480;52.370;9.748;2022-10-31T11:31:41;17.30;;;10.50;;
8887;SDS011;4480;52.370;9.748;2022-10-31T11:34:12;12.00;;;7.00;;
8887;SDS011;4480;52.370;9.748;2022-10-31T11:36:42;13.27;;;8.20;;
8887;SDS011;4480;52.370;9.748;2022-10-31T11:39:13;10.43;;;6.70;;
8887;SDS011;4480;52.370;9.748;2022-10-31T11:41:43;12.30;;;7.40;;
8887;SDS011;4480;52.370;9.748;2022-10-31T11:44:11;12.83;;;7.30;;
8887;SDS011;4480;52.370;9.748;2022-10-31T11:46:40;13.10;;;7.90;;
8887;SDS011;4480;52.370;9.748;2022-10-31T11:49:11;13.73;;;6.97;;
8887;SDS011;4480;52.370;9.748;2022-10-31T11:51:39;10.77;;;6.60;;
8887;SDS011;4480;52.370;9.748;2022-10-31T11:54:14;15.03;;;7.47;;
8887;SDS011;4480;52.370;9.748;2022-10-31T11:56:44;13.53;;;6.97;;
8887;SDS011;4480;52.370;9.748;2022-10-31T11:59:18;10.93;;;7.40;;
8887;SDS011;4480;52.370;9.748;2022-10-31T12:01:48;12.43;;;7.90;;
8887;SDS011;4480;52.370;9.748;2022-10-31T12:04:15;10.83;;;7.43;;
8887;SDS011;4480;52.370;9.748;2022-10-31T12:06:43;15.23;;;9.30;;
8887;SDS011;4480;52.370;9.748;2022-10-31T12:09:16;10.70;;;7.43;;
8887;SDS011;4480;52.370;9.748;2022-10-31T12:11:49;12.43;;;7.60;;
8887;SDS011;4480;52.370;9.748;2022-10-31T12:14:23;11.10;;;8.40;;
8887;SDS011;4480;52.370;9.748;2022-10-31T12:16:53;14.40;;;7.43;;
8887;SDS011;4480;52.370;9.748;2022-10-31T12:19:24;12.63;;;7.73;;
8887;SDS011;4480;52.370;9.748;2022-10-31T12:22:03;16.10;;;8.40;;
8887;SDS011;4480;52.370;9.748;2022-10-31T12:24:35;15.37;;;8.10;;
8887;SDS011;4480;52.370;9.748;2022-10-31T12:27:08;10.83;;;8.33;;
8887;SDS011;4480;52.370;9.748;2022-10-31T12:29:51;13.20;;;7.47;;
8887;SDS011;4480;52.370;9.748;2022-10-31T12:32:24;13.43;;;7.90;;
8887;SDS011;4480;52.370;9.748;2022-10-31T12:34:59;12.07;;;8.10;;
8887;SDS011;4480;52.370;9.748;2022-10-31T12:37:37;14.17;;;8.20;;
8887;SDS011;4480;52.370;9.748;2022-10-31T12:40:15;12.70;;;7.57;;
8887;SDS011;4480;52.370;9.748;2022-10-31T12:42:48;15.87;;;8.30;;
8887;SDS011;4480;52.370;9.748;2022-10-31T12:45:30;13.77;;;7.37;;
8887;SDS011;4480;52.370;9.748;2022-10-31T12:48:04;14.67;;;8.40;;
8887;SDS011;4480;52.370;9.748;2022-10-31T12:50:47;12.30;;;8.10;;
8887;SDS011;4480;52.370;9.748;2022-10-31T12:53:21;11.87;;;8.13;;
8887;SDS011;4480;52.370;9.748;2022-10-31T12:55:55;12.83;;;8.30;;
8887;SDS011;4480;52.370;9.748;2022-10-31T12:58:26;14.40;;;9.70;;
8887;SDS011;4480;52.370;9.748;2022-10-31T13:00:58;13.70;;;9.83;;
8887;SDS011;4480;52.370;9.748;2022-10-31T13:03:30;18.93;;;9.43;;
8887;SDS011;4480;52.370;9.748;2022-10-31T13:06:02;15.93;;;11.67;;
8887;SDS011;4480;52.370;9.748;2022-10-31T13:08:32;16.53;;;10.50;;
8887;SDS011;4480;52.370;9.748;2022-10-31T13:11:02;19.27;;;10.93;;
8887;SDS011;4480;52.370;9.748;2022-10-31T13:13:35;22.20;;;11.03;;
8887;SDS011;4480;52.370;9.748;2022-10-31T13:16:03;22.47;;;11.90;;
8887;SDS011;4480;52.370;9.748;2022-10-31T13:18:33;17.97;;;10.97;;
8887;SDS011;4480;52.370;9.748;2022-10-31T13:21:02;18.20;;;10.57;;
8887;SDS011;4480;52.370;9.748;2022-10-31T13:23:31;13.30;;;10.03;;
8887;SDS011;4480;52.370;9.748;2022-10-31T13:25:59;16.83;;;11.00;;
8887;SDS011;4480;52.370;9.748;2022-10-31T13:28:28;15.20;;;10.37;;
8887;SDS011;4480;52.370;9.748;2022-10-31T13:30:59;17.97;;;10.90;;
8887;SDS011;4480;52.370;9.748;2022-10-31T13:33:27;17.77;;;11.17;;
8887;SDS011;4480;52.370;9.748;2022-10-31T13:35:59;14.77;;;10.47;;
8887;SDS011;4480;52.370;9.748;2022-10-31T13:38:32;21.93;;;10.87;;
8887;SDS011;4480;52.370;9.748;2022-10-31T13:41:01;14.90;;;10.00;;
8887;SDS011;4480;52.370;9.748;2022-10-31T13:43:31;12.93;;;8.37;;
8887;SDS011;4480;52.370;9.748;2022-10-31T13:46:01;20.60;;;9.70;;
8887;SDS011;4480;52.370;9.748;2022-10-31T13:48:38;16.73;;;9.93;;
8887;SDS011;4480;52.370;9.748;2022-10-31T13:51:08;16.87;;;10.70;;
8887;SDS011;4480;52.370;9.748;2022-10-31T13:53:39;18.77;;;10.03;;
8887;SDS011;4480;52.370;9.748;2022-10-31T13:56:17;19.73;;;11.23;;
8887;SDS011;4480;52.370;9.748;2022-10-31T13:58:58;23.87;;;13.27;;
8887;SDS011;4480;52.370;9.748;2022-10-31T14:01:27;25.40;;;13.97;;
8887;SDS011;4480;52.370;9.748;2022-10-31T14:03:56;20.30;;;13.93;;
8887;SDS011;4480;52.370;9.748;2022-10-31T14:06:34;24.00;;;14.63;;
8887;SDS011;4480;52.370;9.748;2022-10-31T14:09:01;23.10;;;15.50;;
8887;SDS011;4480;52.370;9.748;2022-10-31T14:11:28;19.50;;;15.60;;
8887;SDS011;4480;52.370;9.748;2022-10-31T14:13:56;23.47;;;16.07;;
8887;SDS011;4480;52.370;9.748;2022-10-31T14:16:24;23.47;;;15.07;;
8887;SDS011;4480;52.370;9.748;2022-10-31T14:18:58;23.93;;;16.10;;
8887;SDS011;4480;52.370;9.748;2022-10-31T14:21:27;23.43;;;14.97;;
8887;SDS011;4480;52.370;9.748;2022-10-31T14:23:55;27.30;;;15.97;;
8887;SDS011;4480;52.370;9.748;2022-10-31T14:26:32;23.80;;;16.20;;
8887;SDS011;4480;52.370;9.748;2022-10-31T14:29:00;24.17;;;16.40;;
8887;SDS011;4480;52.370;9.748;2022-10-31T14:31:33;25.37;;;16.93;;
8887;SDS011;4480;52.370;9.748;2022-10-31T14:34:04;29.07;;;17.40;;
8887;SDS011;4480;52.370;9.748;2022-10-31T14:36:37;27.37;;;19.37;;
8887;SDS011;4480;52.370;9.748;2022-10-31T14:39:07;31.57;;;19.07;;
8887;SDS011;4480;52.370;9.748;2022-10-31T14:41:44;28.90;;;18.90;;
8887;SDS011;4480;52.370;9.748;2022-10-31T14:47:04;39.40;;;19.87;;
8887;SDS011;4480;52.370;9.748;2022-10-31T14:49:39;26.10;;;19.03;;
8887;SDS011;4480;52.370;9.748;2022-10-31T14:52:12;28.53;;;19.73;;
8887;SDS011;4480;52.370;9.748;2022-10-31T14:54:41;31.90;;;20.23;;
8887;SDS011;4480;52.370;9.748;2022-10-31T14:57:13;33.83;;;20.70;;
8887;SDS011;4480;52.370;9.748;2022-10-31T14:59:43;31.80;;;18.50;;
8887;SDS011;4480;52.370;9.748;2022-10-31T15:02:14;34.43;;;20.10;;
8887;SDS011;4480;52.370;9.748;2022-10-31T15:04:44;28.90;;;19.60;;
8887;SDS011;4480;52.370;9.748;2022-10-31T15:07:13;26.13;;;17.80;;
8887;SDS011;4480;52.370;9.748;2022-10-31T15:09:41;31.50;;;17.93;;
8887;SDS011;4480;52.370;9.748;2022-10-31T15:12:23;32.07;;;18.97;;
8887;SDS011;4480;52.370;9.748;2022-10-31T15:14:51;31.63;;;19.10;;
8887;SDS011;4480;52.370;9.748;2022-10-31T15:17:18;28.50;;;19.30;;